Map

Track Data

SID SEASON NUMBER BASIN SUBBASIN NAME ISO_TIME NATURE LAT LON WMO_WIND WMO_PRES WMO_AGENCY TRACK_TYPE DIST2LAND LANDFALL IFLAG USA_AGENCY USA_ATCF_ID USA_LAT USA_LON USA_RECORD USA_STATUS USA_WIND USA_PRES USA_SSHS USA_R34_NE USA_R34_SE USA_R34_SW USA_R34_NW USA_R50_NE USA_R50_SE USA_R50_SW USA_R50_NW USA_R64_NE USA_R64_SE USA_R64_SW USA_R64_NW USA_POCI USA_ROCI USA_RMW USA_EYE TOKYO_LAT TOKYO_LON TOKYO_GRADE TOKYO_WIND TOKYO_PRES TOKYO_R50_DIR TOKYO_R50_LONG TOKYO_R50_SHORT TOKYO_R30_DIR TOKYO_R30_LONG TOKYO_R30_SHORT TOKYO_LAND CMA_LAT CMA_LON CMA_CAT CMA_WIND CMA_PRES HKO_LAT HKO_LON HKO_CAT HKO_WIND HKO_PRES NEWDELHI_LAT NEWDELHI_LON NEWDELHI_GRADE NEWDELHI_WIND NEWDELHI_PRES NEWDELHI_CI NEWDELHI_DP NEWDELHI_POCI REUNION_LAT REUNION_LON REUNION_TYPE REUNION_WIND REUNION_PRES REUNION_TNUM REUNION_CI REUNION_RMW REUNION_R34_NE REUNION_R34_SE REUNION_R34_SW REUNION_R34_NW REUNION_R50_NE REUNION_R50_SE REUNION_R50_SW REUNION_R50_NW REUNION_R64_NE REUNION_R64_SE REUNION_R64_SW REUNION_R64_NW BOM_LAT BOM_LON BOM_TYPE BOM_WIND BOM_PRES BOM_TNUM BOM_CI BOM_RMW BOM_R34_NE BOM_R34_SE BOM_R34_SW BOM_R34_NW BOM_R50_NE BOM_R50_SE BOM_R50_SW BOM_R50_NW BOM_R64_NE BOM_R64_SE BOM_R64_SW BOM_R64_NW BOM_ROCI BOM_POCI BOM_EYE BOM_POS_METHOD BOM_PRES_METHOD NADI_LAT NADI_LON NADI_CAT NADI_WIND NADI_PRES WELLINGTON_LAT WELLINGTON_LON WELLINGTON_WIND WELLINGTON_PRES DS824_LAT DS824_LON DS824_STAGE DS824_WIND DS824_PRES TD9636_LAT TD9636_LON TD9636_STAGE TD9636_WIND TD9636_PRES TD9635_LAT TD9635_LON TD9635_WIND TD9635_PRES TD9635_ROCI NEUMANN_LAT NEUMANN_LON NEUMANN_CLASS NEUMANN_WIND NEUMANN_PRES MLC_LAT MLC_LON MLC_CLASS MLC_WIND MLC_PRES USA_GUST BOM_GUST BOM_GUST_PER REUNION_GUST REUNION_GUST_PER USA_SEAHGT USA_SEARAD_NE USA_SEARAD_SE USA_SEARAD_SW USA_SEARAD_NW STORM_SPEED STORM_DIR
1993262N27298 1993 71 NA NA HARVEY 1993-09-18 18:00:00 TS 26.7000 -61.8000 30 1014 hurdat_atl main 1006 1006 O_____________ hurdat_atl AL091993 26.7000 -61.8000 TD 30 1014 -1 6 341
1993262N27298 1993 71 NA NA HARVEY 1993-09-18 21:00:00 TS 27.0000 -61.9124 main 1033 1033 P_____________ AL091993 27.0000 -61.9124 TD 30 1013 -1 6 344
1993262N27298 1993 71 NA NA HARVEY 1993-09-19 00:00:00 TS 27.3000 -62.0000 30 1013 hurdat_atl main 1060 1060 O_____________ hurdat_atl AL091993 27.3000 -62.0000 TD 30 1013 -1 6 349
1993262N27298 1993 71 NA NA HARVEY 1993-09-19 03:00:00 TS 27.6000 -62.0374 main 1092 1092 P_____________ AL091993 27.6000 -62.0374 TD 30 1012 -1 6 1
1993262N27298 1993 71 NA NA HARVEY 1993-09-19 06:00:00 TS 27.9000 -62.0000 30 1012 hurdat_atl main 1123 1123 O_____________ hurdat_atl AL091993 27.9000 -62.0000 TD 30 1012 -1 6 12
1993262N27298 1993 71 NA NA HARVEY 1993-09-19 09:00:00 TS 28.1849 -61.8948 main 1158 1158 P_____________ AL091993 28.1849 -61.8948 TD 30 1011 -1 7 24
1993262N27298 1993 71 NA NA HARVEY 1993-09-19 12:00:00 TS 28.5000 -61.7000 30 1010 hurdat_atl main 1196 1196 O_____________ hurdat_atl AL091993 28.5000 -61.7000 TD 30 1010 -1 8 30
1993262N27298 1993 71 NA NA HARVEY 1993-09-19 15:00:00 TS 28.8774 -61.4447 main 1248 1248 P_____________ AL091993 28.8774 -61.4447 TD 30 1009 -1 10 33
1993262N27298 1993 71 NA NA HARVEY 1993-09-19 18:00:00 TS 29.3000 -61.1000 30 1009 hurdat_atl main 1300 1300 O_____________ hurdat_atl AL091993 29.3000 -61.1000 TD 30 1009 -1 11 38
1993262N27298 1993 71 NA NA HARVEY 1993-09-19 21:00:00 TS 29.7123 -60.6941 main 1356 1356 P_____________ AL091993 29.7123 -60.6941 TD 30 1008 -1 12 41
1993262N27298 1993 71 NA NA HARVEY 1993-09-20 00:00:00 TS 30.2000 -60.2000 30 1008 hurdat_atl main 1426 1426 O_____________ hurdat_atl AL091993 30.2000 -60.2000 TD 30 1008 -1 14 40
1993262N27298 1993 71 NA NA HARVEY 1993-09-20 03:00:00 TS 30.7821 -59.6510 main 1497 1445 P_____________ AL091993 30.7821 -59.6510 TD 32 1006 -1 17 38
1993262N27298 1993 71 NA NA HARVEY 1993-09-20 06:00:00 TS 31.5000 -59.0000 35 1005 hurdat_atl main 1445 1388 O_____________ hurdat_atl AL091993 31.5000 -59.0000 TS 35 1005 0 19 37
1993262N27298 1993 71 NA NA HARVEY 1993-09-20 09:00:00 TS 32.3242 -58.2722 main 1388 1330 P_____________ AL091993 32.3242 -58.2722 TS 42 1001 0 23 37
1993262N27298 1993 71 NA NA HARVEY 1993-09-20 12:00:00 TS 33.3000 -57.4000 50 998 hurdat_atl main 1325 1266 O_____________ hurdat_atl AL091993 33.3000 -57.4000 TS 50 998 0 26 37
1993262N27298 1993 71 NA NA HARVEY 1993-09-20 15:00:00 TS 34.4192 -56.3810 main 1266 1184 P_____________ AL091993 34.4192 -56.3810 TS 57 994 0 29 38
1993262N27298 1993 71 NA NA HARVEY 1993-09-20 18:00:00 TS 35.6000 -55.2000 65 990 hurdat_atl main 1177 1101 O_____________ hurdat_atl AL091993 35.6000 -55.2000 HU 65 990 1 31 41
1993262N27298 1993 71 NA NA HARVEY 1993-09-20 21:00:00 TS 36.7211 -53.9144 main 1101 990 P_____________ AL091993 36.7211 -53.9144 HU 62 991 0 31 45
1993262N27298 1993 71 NA NA HARVEY 1993-09-21 00:00:00 TS 37.8000 -52.5000 60 992 hurdat_atl main 980 894 O_____________ hurdat_atl AL091993 37.8000 -52.5000 TS 60 992 0 31 49
1993262N27298 1993 71 NA NA HARVEY 1993-09-21 03:00:00 TS 38.7623 -50.9582 main 885 820 P_____________ AL091993 38.7623 -50.9582 TS 57 993 0 31 50
1993262N27298 1993 71 NA NA HARVEY 1993-09-21 06:00:00 TS 39.8000 -49.4000 55 994 hurdat_atl main 815 743 O_____________ hurdat_atl AL091993 39.8000 -49.4000 TS 55 994 0 32 45
1993262N27298 1993 71 NA NA HARVEY 1993-09-21 09:00:00 TS 41.0306 -48.0374 main 748 699 P_____________ AL091993 41.0306 -48.0374 TS 52 995 0 35 39
1993262N27298 1993 71 NA NA HARVEY 1993-09-21 12:00:00 TS 42.5000 -46.5000 50 997 hurdat_atl main 697 692 O_____________ hurdat_atl AL091993 42.5000 -46.5000 TS 50 997 0 41 40
1993262N27298 1993 71 NA NA HARVEY 1993-09-21 15:00:00 TS 44.2018 -44.4551 main 719 719 P_____________ AL091993 44.2018 -44.4551 TS 50 998 0 48 43
1993262N27298 1993 71 NA NA HARVEY 1993-09-21 18:00:00 ET 46.0000 -42.0000 50 999 hurdat_atl main 820 O_____________ hurdat_atl AL091993 46.0000 -42.0000 EX 50 999 -4 50 43

About IBTrACS Database

This database is a web-friendly format of International Best Track Archive for Climate Stewardship (IBTrACS), a global best track data archive curated by NOAA dating back to 1842.

Updated: 2021-12-03